sensor_id;sensor_type;location;lat;lon;timestamp;pressure;altitude;pressure_sealevel;temperature;humidity
54870;BME280;40756;-37.950;145.008;2024-01-11T00:00:08;101856.80;;;22.42;40.48
54870;BME280;40756;-37.950;145.008;2024-01-11T00:02:38;101856.21;;;23.17;39.10
54870;BME280;40756;-37.950;145.008;2024-01-11T00:05:08;101855.01;;;23.08;40.16
54870;BME280;40756;-37.950;145.008;2024-01-11T00:07:37;101854.30;;;23.63;38.48
54870;BME280;40756;-37.950;145.008;2024-01-11T00:10:07;101857.39;;;23.31;39.08
54870;BME280;40756;-37.950;145.008;2024-01-11T00:12:37;101857.63;;;21.95;40.72
54870;BME280;40756;-37.950;145.008;2024-01-11T00:15:07;101858.10;;;22.44;40.51
54870;BME280;40756;-37.950;145.008;2024-01-11T00:17:37;101858.47;;;22.01;41.09
54870;BME280;40756;-37.950;145.008;2024-01-11T00:20:07;101856.65;;;23.15;40.87
54870;BME280;40756;-37.950;145.008;2024-01-11T00:22:36;101853.50;;;23.73;39.70
54870;BME280;40756;-37.950;145.008;2024-01-11T00:25:06;101851.09;;;24.02;38.44
54870;BME280;40756;-37.950;145.008;2024-01-11T00:27:36;101845.25;;;23.69;39.05
54870;BME280;40756;-37.950;145.008;2024-01-11T00:30:07;101844.63;;;23.08;40.23
54870;BME280;40756;-37.950;145.008;2024-01-11T00:32:37;101849.27;;;23.09;39.78
54870;BME280;40756;-37.950;145.008;2024-01-11T00:35:07;101848.07;;;21.73;41.14
54870;BME280;40756;-37.950;145.008;2024-01-11T00:37:37;101839.23;;;23.39;39.30
54870;BME280;40756;-37.950;145.008;2024-01-11T00:40:07;101834.83;;;23.92;38.83
54870;BME280;40756;-37.950;145.008;2024-01-11T00:42:37;101841.53;;;22.94;39.50
54870;BME280;40756;-37.950;145.008;2024-01-11T00:45:07;101837.42;;;22.49;40.75
54870;BME280;40756;-37.950;145.008;2024-01-11T00:47:37;101843.17;;;23.17;40.58
54870;BME280;40756;-37.950;145.008;2024-01-11T00:50:08;101845.85;;;23.34;39.90
54870;BME280;40756;-37.950;145.008;2024-01-11T00:52:37;101841.67;;;22.08;40.92
54870;BME280;40756;-37.950;145.008;2024-01-11T00:55:07;101844.94;;;23.20;40.48
54870;BME280;40756;-37.950;145.008;2024-01-11T00:57:36;101849.03;;;22.84;41.28
54870;BME280;40756;-37.950;145.008;2024-01-11T01:00:07;101848.13;;;23.41;39.25
54870;BME280;40756;-37.950;145.008;2024-01-11T01:02:37;101844.87;;;23.18;40.57
54870;BME280;40756;-37.950;145.008;2024-01-11T01:05:08;101844.21;;;23.28;39.32
54870;BME280;40756;-37.950;145.008;2024-01-11T01:07:37;101847.86;;;24.03;39.01
54870;BME280;40756;-37.950;145.008;2024-01-11T01:10:08;101844.97;;;22.40;41.00
54870;BME280;40756;-37.950;145.008;2024-01-11T01:12:37;101843.52;;;23.08;40.01
54870;BME280;40756;-37.950;145.008;2024-01-11T01:15:07;101845.90;;;23.30;39.50
54870;BME280;40756;-37.950;145.008;2024-01-11T01:17:37;101845.24;;;23.07;40.88
54870;BME280;40756;-37.950;145.008;2024-01-11T01:20:07;101836.83;;;22.49;40.79
54870;BME280;40756;-37.950;145.008;2024-01-11T01:22:36;101833.39;;;23.10;41.02
54870;BME280;40756;-37.950;145.008;2024-01-11T01:25:06;101824.71;;;23.63;39.49
54870;BME280;40756;-37.950;145.008;2024-01-11T01:27:36;101827.48;;;23.83;39.36
54870;BME280;40756;-37.950;145.008;2024-01-11T01:30:06;101823.41;;;24.19;38.15
54870;BME280;40756;-37.950;145.008;2024-01-11T01:32:35;101829.53;;;23.64;39.31
54870;BME280;40756;-37.950;145.008;2024-01-11T01:35:04;101825.36;;;23.78;39.03
54870;BME280;40756;-37.950;145.008;2024-01-11T01:37:34;101828.23;;;23.77;38.54
54870;BME280;40756;-37.950;145.008;2024-01-11T01:40:04;101823.06;;;24.56;38.22
54870;BME280;40756;-37.950;145.008;2024-01-11T01:42:34;101820.66;;;25.19;37.57
54870;BME280;40756;-37.950;145.008;2024-01-11T01:45:04;101818.97;;;24.02;38.20
54870;BME280;40756;-37.950;145.008;2024-01-11T01:47:34;101820.71;;;24.36;38.97
54870;BME280;40756;-37.950;145.008;2024-01-11T01:50:04;101814.26;;;24.41;37.73
54870;BME280;40756;-37.950;145.008;2024-01-11T01:52:34;101814.43;;;24.87;37.85
54870;BME280;40756;-37.950;145.008;2024-01-11T01:55:07;101822.26;;;24.59;39.26
54870;BME280;40756;-37.950;145.008;2024-01-11T01:57:41;101820.82;;;24.85;38.97
54870;BME280;40756;-37.950;145.008;2024-01-11T02:00:12;101824.28;;;25.17;39.43
54870;BME280;40756;-37.950;145.008;2024-01-11T02:02:42;101823.38;;;25.06;38.93
54870;BME280;40756;-37.950;145.008;2024-01-11T02:05:13;101831.51;;;24.71;39.60
54870;BME280;40756;-37.950;145.008;2024-01-11T02:07:43;101829.38;;;24.32;40.01
54870;BME280;40756;-37.950;145.008;2024-01-11T02:10:13;101825.03;;;23.20;41.16
54870;BME280;40756;-37.950;145.008;2024-01-11T02:12:43;101823.19;;;24.37;39.97
54870;BME280;40756;-37.950;145.008;2024-01-11T02:15:13;101822.59;;;24.63;39.95
54870;BME280;40756;-37.950;145.008;2024-01-11T02:17:43;101823.78;;;25.68;38.16
54870;BME280;40756;-37.950;145.008;2024-01-11T02:20:13;101828.00;;;25.16;38.47
54870;BME280;40756;-37.950;145.008;2024-01-11T02:22:50;101827.31;;;24.36;38.72
54870;BME280;40756;-37.950;145.008;2024-01-11T02:25:22;101823.72;;;25.77;38.19
54870;BME280;40756;-37.950;145.008;2024-01-11T02:27:51;101821.81;;;24.75;39.85
54870;BME280;40756;-37.950;145.008;2024-01-11T02:30:21;101819.71;;;25.43;38.61
54870;BME280;40756;-37.950;145.008;2024-01-11T02:32:51;101825.12;;;24.76;38.63
54870;BME280;40756;-37.950;145.008;2024-01-11T02:35:21;101825.98;;;24.75;39.98
54870;BME280;40756;-37.950;145.008;2024-01-11T02:37:51;101838.01;;;24.65;40.71
54870;BME280;40756;-37.950;145.008;2024-01-11T02:40:21;101842.47;;;24.37;40.54
54870;BME280;40756;-37.950;145.008;2024-01-11T02:42:50;101839.33;;;25.26;40.18
54870;BME280;40756;-37.950;145.008;2024-01-11T02:45:20;101840.88;;;24.80;41.26
54870;BME280;40756;-37.950;145.008;2024-01-11T02:47:49;101844.41;;;25.68;40.01
54870;BME280;40756;-37.950;145.008;2024-01-11T02:50:18;101840.48;;;25.07;40.33
54870;BME280;40756;-37.950;145.008;2024-01-11T02:52:48;101843.05;;;24.16;41.37
54870;BME280;40756;-37.950;145.008;2024-01-11T02:55:18;101844.79;;;25.13;40.18
54870;BME280;40756;-37.950;145.008;2024-01-11T02:57:47;101847.36;;;24.87;40.52
54870;BME280;40756;-37.950;145.008;2024-01-11T03:00:17;101852.46;;;24.26;41.94
54870;BME280;40756;-37.950;145.008;2024-01-11T03:02:47;101841.86;;;24.70;42.17
54870;BME280;40756;-37.950;145.008;2024-01-11T03:05:16;101842.29;;;24.59;42.62
54870;BME280;40756;-37.950;145.008;2024-01-11T03:07:46;101844.35;;;24.45;42.18
54870;BME280;40756;-37.950;145.008;2024-01-11T03:10:15;101837.61;;;24.45;41.96
54870;BME280;40756;-37.950;145.008;2024-01-11T03:12:44;101831.53;;;24.18;43.51
54870;BME280;40756;-37.950;145.008;2024-01-11T03:15:14;101828.87;;;24.99;42.32
54870;BME280;40756;-37.950;145.008;2024-01-11T03:17:43;101837.87;;;24.60;43.02
54870;BME280;40756;-37.950;145.008;2024-01-11T03:20:12;101836.94;;;25.53;41.40
54870;BME280;40756;-37.950;145.008;2024-01-11T03:22:47;101830.25;;;24.48;43.37
54870;BME280;40756;-37.950;145.008;2024-01-11T03:25:16;101830.16;;;26.19;40.95
54870;BME280;40756;-37.950;145.008;2024-01-11T03:27:45;101836.59;;;24.97;41.30
54870;BME280;40756;-37.950;145.008;2024-01-11T03:30:15;101835.15;;;25.43;40.74
54870;BME280;40756;-37.950;145.008;2024-01-11T03:32:44;101832.04;;;25.56;40.89
54870;BME280;40756;-37.950;145.008;2024-01-11T03:35:14;101827.64;;;24.81;41.17
54870;BME280;40756;-37.950;145.008;2024-01-11T03:37:43;101830.69;;;25.50;41.72
54870;BME280;40756;-37.950;145.008;2024-01-11T03:40:13;101835.32;;;25.13;41.20
54870;BME280;40756;-37.950;145.008;2024-01-11T03:42:43;101838.18;;;25.50;40.59
54870;BME280;40756;-37.950;145.008;2024-01-11T03:45:13;101838.22;;;25.32;41.61
54870;BME280;40756;-37.950;145.008;2024-01-11T03:47:42;101829.11;;;25.58;41.20
54870;BME280;40756;-37.950;145.008;2024-01-11T03:50:11;101835.75;;;24.44;42.12
54870;BME280;40756;-37.950;145.008;2024-01-11T03:52:41;101835.16;;;24.31;41.88
54870;BME280;40756;-37.950;145.008;2024-01-11T03:55:11;101819.01;;;25.66;40.91
54870;BME280;40756;-37.950;145.008;2024-01-11T03:57:41;101819.29;;;24.80;42.09
54870;BME280;40756;-37.950;145.008;2024-01-11T04:00:12;101812.23;;;25.74;41.01
54870;BME280;40756;-37.950;145.008;2024-01-11T04:02:41;101808.54;;;25.83;41.44
54870;BME280;40756;-37.950;145.008;2024-01-11T04:05:10;101806.98;;;26.57;40.93
54870;BME280;40756;-37.950;145.008;2024-01-11T04:07:39;101814.24;;;25.80;40.81
54870;BME280;40756;-37.950;145.008;2024-01-11T04:10:10;101812.81;;;26.29;40.08
54870;BME280;40756;-37.950;145.008;2024-01-11T04:12:39;101820.82;;;24.65;42.50
54870;BME280;40756;-37.950;145.008;2024-01-11T04:15:11;101816.24;;;25.79;41.73
54870;BME280;40756;-37.950;145.008;2024-01-11T04:17:41;101809.86;;;26.65;41.04
54870;BME280;40756;-37.950;145.008;2024-01-11T04:20:11;101807.19;;;26.49;41.46
54870;BME280;40756;-37.950;145.008;2024-01-11T04:22:41;101808.30;;;26.44;41.41
54870;BME280;40756;-37.950;145.008;2024-01-11T04:25:10;101808.69;;;25.50;42.32
54870;BME280;40756;-37.950;145.008;2024-01-11T04:27:40;101807.55;;;26.47;40.55
54870;BME280;40756;-37.950;145.008;2024-01-11T04:30:10;101804.81;;;27.04;40.93
54870;BME280;40756;-37.950;145.008;2024-01-11T04:32:40;101806.57;;;26.47;41.65
54870;BME280;40756;-37.950;145.008;2024-01-11T04:35:09;101813.89;;;26.17;41.13
54870;BME280;40756;-37.950;145.008;2024-01-11T04:37:38;101813.69;;;26.48;40.66
54870;BME280;40756;-37.950;145.008;2024-01-11T04:40:09;101810.42;;;26.03;40.71
54870;BME280;40756;-37.950;145.008;2024-01-11T04:42:39;101810.28;;;26.82;37.83
54870;BME280;40756;-37.950;145.008;2024-01-11T04:45:08;101815.15;;;26.35;38.55
54870;BME280;40756;-37.950;145.008;2024-01-11T04:47:38;101821.28;;;25.25;39.86
54870;BME280;40756;-37.950;145.008;2024-01-11T04:50:08;101815.25;;;25.71;40.73
54870;BME280;40756;-37.950;145.008;2024-01-11T04:52:37;101812.23;;;26.53;39.11
54870;BME280;40756;-37.950;145.008;2024-01-11T04:55:07;101803.33;;;27.81;37.05
54870;BME280;40756;-37.950;145.008;2024-01-11T04:57:37;101802.05;;;28.79;36.48
54870;BME280;40756;-37.950;145.008;2024-01-11T05:00:08;101792.90;;;27.26;38.49
54870;BME280;40756;-37.950;145.008;2024-01-11T05:02:37;101786.82;;;27.34;38.11
54870;BME280;40756;-37.950;145.008;2024-01-11T05:05:06;101788.66;;;27.39;36.97
54870;BME280;40756;-37.950;145.008;2024-01-11T05:07:35;101782.99;;;26.57;36.61
54870;BME280;40756;-37.950;145.008;2024-01-11T05:10:06;101778.42;;;26.37;38.08
54870;BME280;40756;-37.950;145.008;2024-01-11T05:12:35;101775.87;;;27.17;36.94
54870;BME280;40756;-37.950;145.008;2024-01-11T05:15:05;101780.99;;;26.63;38.13
54870;BME280;40756;-37.950;145.008;2024-01-11T05:17:34;101787.76;;;27.04;37.70
54870;BME280;40756;-37.950;145.008;2024-01-11T05:20:04;101791.69;;;25.83;38.17
54870;BME280;40756;-37.950;145.008;2024-01-11T05:22:34;101790.19;;;24.92;40.07
54870;BME280;40756;-37.950;145.008;2024-01-11T05:25:03;101782.94;;;25.43;39.66
54870;BME280;40756;-37.950;145.008;2024-01-11T05:27:33;101776.15;;;26.17;38.85
54870;BME280;40756;-37.950;145.008;2024-01-11T05:30:02;101772.42;;;26.28;38.50
54870;BME280;40756;-37.950;145.008;2024-01-11T05:32:32;101769.99;;;25.08;40.71
54870;BME280;40756;-37.950;145.008;2024-01-11T05:35:01;101767.73;;;24.89;39.79
54870;BME280;40756;-37.950;145.008;2024-01-11T05:37:30;101775.96;;;25.55;39.24
54870;BME280;40756;-37.950;145.008;2024-01-11T05:40:00;101778.96;;;26.23;38.84
54870;BME280;40756;-37.950;145.008;2024-01-11T05:42:29;101783.78;;;25.61;39.74
54870;BME280;40756;-37.950;145.008;2024-01-11T05:44:58;101785.08;;;25.91;39.21
54870;BME280;40756;-37.950;145.008;2024-01-11T05:47:27;101783.37;;;25.36;39.45
54870;BME280;40756;-37.950;145.008;2024-01-11T05:49:57;101787.07;;;25.08;39.93
54870;BME280;40756;-37.950;145.008;2024-01-11T05:52:26;101782.90;;;25.54;39.96
54870;BME280;40756;-37.950;145.008;2024-01-11T05:54:55;101790.45;;;24.77;40.62
54870;BME280;40756;-37.950;145.008;2024-01-11T05:57:25;101789.78;;;25.32;40.01
54870;BME280;40756;-37.950;145.008;2024-01-11T05:59:55;101798.41;;;24.09;41.50
54870;BME280;40756;-37.950;145.008;2024-01-11T06:02:24;101796.00;;;25.39;40.01
54870;BME280;40756;-37.950;145.008;2024-01-11T06:04:53;101793.70;;;25.25;40.35
54870;BME280;40756;-37.950;145.008;2024-01-11T06:07:23;101800.19;;;25.42;38.61
54870;BME280;40756;-37.950;145.008;2024-01-11T06:09:52;101786.80;;;25.21;40.52
54870;BME280;40756;-37.950;145.008;2024-01-11T06:12:22;101777.01;;;26.32;38.00
54870;BME280;40756;-37.950;145.008;2024-01-11T06:14:56;101775.80;;;24.67;39.76
54870;BME280;40756;-37.950;145.008;2024-01-11T06:17:26;101771.28;;;26.07;37.47
54870;BME280;40756;-37.950;145.008;2024-01-11T06:19:55;101767.27;;;26.30;38.94
54870;BME280;40756;-37.950;145.008;2024-01-11T06:22:25;101772.42;;;25.16;38.96
54870;BME280;40756;-37.950;145.008;2024-01-11T06:24:54;101774.88;;;25.52;38.91
54870;BME280;40756;-37.950;145.008;2024-01-11T06:27:24;101773.74;;;25.74;38.04
54870;BME280;40756;-37.950;145.008;2024-01-11T06:29:53;101773.50;;;25.99;37.67
54870;BME280;40756;-37.950;145.008;2024-01-11T06:32:23;101777.65;;;24.95;38.68
54870;BME280;40756;-37.950;145.008;2024-01-11T06:34:52;101779.74;;;23.28;40.72
54870;BME280;40756;-37.950;145.008;2024-01-11T06:37:21;101781.50;;;24.41;38.91
54870;BME280;40756;-37.950;145.008;2024-01-11T06:39:51;101777.37;;;25.15;38.18
54870;BME280;40756;-37.950;145.008;2024-01-11T06:42:20;101781.98;;;24.58;39.03
54870;BME280;40756;-37.950;145.008;2024-01-11T06:44:49;101783.66;;;24.80;39.37
54870;BME280;40756;-37.950;145.008;2024-01-11T06:47:19;101782.76;;;24.64;38.95
54870;BME280;40756;-37.950;145.008;2024-01-11T06:49:48;101787.60;;;23.96;39.39
54870;BME280;40756;-37.950;145.008;2024-01-11T06:52:17;101787.66;;;24.35;38.95
54870;BME280;40756;-37.950;145.008;2024-01-11T06:54:47;101783.16;;;25.12;39.18
54870;BME280;40756;-37.950;145.008;2024-01-11T06:57:16;101789.31;;;24.30;39.28
54870;BME280;40756;-37.950;145.008;2024-01-11T06:59:45;101796.51;;;25.75;38.50
54870;BME280;40756;-37.950;145.008;2024-01-11T07:02:16;101798.44;;;23.37;40.77
54870;BME280;40756;-37.950;145.008;2024-01-11T07:04:46;101796.15;;;24.07;39.41
54870;BME280;40756;-37.950;145.008;2024-01-11T07:07:15;101789.10;;;24.88;39.87
54870;BME280;40756;-37.950;145.008;2024-01-11T07:09:45;101789.38;;;23.82;40.07
54870;BME280;40756;-37.950;145.008;2024-01-11T07:12:14;101787.26;;;25.49;38.15
54870;BME280;40756;-37.950;145.008;2024-01-11T07:14:44;101787.05;;;24.77;38.20
54870;BME280;40756;-37.950;145.008;2024-01-11T07:17:14;101794.03;;;24.39;38.69
54870;BME280;40756;-37.950;145.008;2024-01-11T07:19:43;101800.03;;;23.83;39.34
54870;BME280;40756;-37.950;145.008;2024-01-11T07:22:13;101801.86;;;24.57;38.88
54870;BME280;40756;-37.950;145.008;2024-01-11T07:24:43;101804.31;;;24.11;39.87
54870;BME280;40756;-37.950;145.008;2024-01-11T07:27:13;101809.82;;;22.68;42.93
54870;BME280;40756;-37.950;145.008;2024-01-11T07:29:42;101803.07;;;23.35;41.26
54870;BME280;40756;-37.950;145.008;2024-01-11T07:32:12;101801.59;;;23.52;41.01
54870;BME280;40756;-37.950;145.008;2024-01-11T07:34:42;101797.92;;;23.75;40.31
54870;BME280;40756;-37.950;145.008;2024-01-11T07:37:11;101797.33;;;22.90;41.00
54870;BME280;40756;-37.950;145.008;2024-01-11T07:39:41;101800.86;;;22.85;41.88
54870;BME280;40756;-37.950;145.008;2024-01-11T07:42:10;101800.21;;;23.05;41.32
54870;BME280;40756;-37.950;145.008;2024-01-11T07:44:40;101801.00;;;23.92;41.38
54870;BME280;40756;-37.950;145.008;2024-01-11T07:47:09;101807.78;;;23.69;40.50
54870;BME280;40756;-37.950;145.008;2024-01-11T07:49:39;101814.15;;;23.57;40.56
54870;BME280;40756;-37.950;145.008;2024-01-11T07:52:08;101817.08;;;24.54;39.84
54870;BME280;40756;-37.950;145.008;2024-01-11T07:54:37;101819.33;;;24.07;40.47
54870;BME280;40756;-37.950;145.008;2024-01-11T07:57:06;101820.62;;;22.84;42.01
54870;BME280;40756;-37.950;145.008;2024-01-11T07:59:36;101818.19;;;22.76;42.25
54870;BME280;40756;-37.950;145.008;2024-01-11T08:02:05;101817.16;;;21.87;43.95
54870;BME280;40756;-37.950;145.008;2024-01-11T08:04:35;101817.49;;;23.11;42.82
54870;BME280;40756;-37.950;145.008;2024-01-11T08:07:04;101813.02;;;23.01;43.04
54870;BME280;40756;-37.950;145.008;2024-01-11T08:09:34;101813.63;;;22.96;42.72
54870;BME280;40756;-37.950;145.008;2024-01-11T08:12:03;101802.37;;;21.99;44.01
54870;BME280;40756;-37.950;145.008;2024-01-11T08:14:33;101798.64;;;22.77;43.47
54870;BME280;40756;-37.950;145.008;2024-01-11T08:17:03;101800.22;;;22.64;43.27
54870;BME280;40756;-37.950;145.008;2024-01-11T08:19:32;101797.16;;;22.21;43.70
54870;BME280;40756;-37.950;145.008;2024-01-11T08:22:01;101799.30;;;22.05;43.76
54870;BME280;40756;-37.950;145.008;2024-01-11T08:24:31;101800.87;;;22.19;44.54
54870;BME280;40756;-37.950;145.008;2024-01-11T08:27:00;101805.88;;;20.18;47.09
54870;BME280;40756;-37.950;145.008;2024-01-11T08:29:29;101799.03;;;21.23;46.16
54870;BME280;40756;-37.950;145.008;2024-01-11T08:31:59;101797.65;;;20.89;46.62
54870;BME280;40756;-37.950;145.008;2024-01-11T08:34:28;101787.03;;;22.03;44.75
54870;BME280;40756;-37.950;145.008;2024-01-11T08:36:57;101784.19;;;22.48;43.89
54870;BME280;40756;-37.950;145.008;2024-01-11T08:39:27;101780.46;;;22.56;43.42
54870;BME280;40756;-37.950;145.008;2024-01-11T08:41:56;101794.91;;;20.84;45.04
54870;BME280;40756;-37.950;145.008;2024-01-11T08:44:26;101802.12;;;22.48;42.72
54870;BME280;40756;-37.950;145.008;2024-01-11T08:46:57;101814.56;;;20.45;44.87
54870;BME280;40756;-37.950;145.008;2024-01-11T08:49:26;101811.04;;;20.32;45.82
54870;BME280;40756;-37.950;145.008;2024-01-11T08:51:55;101813.68;;;20.00;46.17
54870;BME280;40756;-37.950;145.008;2024-01-11T08:54:25;101809.05;;;20.73;45.44
54870;BME280;40756;-37.950;145.008;2024-01-11T08:56:54;101806.76;;;21.00;44.99
54870;BME280;40756;-37.950;145.008;2024-01-11T08:59:24;101808.28;;;20.20;46.54
54870;BME280;40756;-37.950;145.008;2024-01-11T09:01:53;101808.20;;;21.49;44.24
54870;BME280;40756;-37.950;145.008;2024-01-11T09:04:23;101806.46;;;20.88;45.40
54870;BME280;40756;-37.950;145.008;2024-01-11T09:06:53;101808.11;;;20.26;46.45
54870;BME280;40756;-37.950;145.008;2024-01-11T09:09:22;101806.75;;;20.78;46.04
54870;BME280;40756;-37.950;145.008;2024-01-11T09:11:51;101809.27;;;20.71;45.90
54870;BME280;40756;-37.950;145.008;2024-01-11T09:14:21;101804.78;;;21.57;44.02
54870;BME280;40756;-37.950;145.008;2024-01-11T09:16:50;101804.95;;;21.68;44.04
54870;BME280;40756;-37.950;145.008;2024-01-11T09:19:20;101807.99;;;20.79;45.57
54870;BME280;40756;-37.950;145.008;2024-01-11T09:21:49;101807.30;;;21.42;45.27
54870;BME280;40756;-37.950;145.008;2024-01-11T09:24:19;101806.61;;;21.40;45.49
54870;BME280;40756;-37.950;145.008;2024-01-11T09:26:48;101807.71;;;21.36;44.53
54870;BME280;40756;-37.950;145.008;2024-01-11T09:29:17;101806.32;;;22.03;43.88
54870;BME280;40756;-37.950;145.008;2024-01-11T09:31:47;101810.86;;;21.77;44.88
54870;BME280;40756;-37.950;145.008;2024-01-11T09:34:16;101814.59;;;20.84;46.47
54870;BME280;40756;-37.950;145.008;2024-01-11T09:36:46;101808.68;;;21.52;46.26
54870;BME280;40756;-37.950;145.008;2024-01-11T09:39:15;101805.25;;;20.58;47.80
54870;BME280;40756;-37.950;145.008;2024-01-11T09:41:56;101798.85;;;21.39;45.41
54870;BME280;40756;-37.950;145.008;2024-01-11T09:44:27;101801.75;;;20.92;46.87
54870;BME280;40756;-37.950;145.008;2024-01-11T09:46:59;101797.09;;;20.15;48.02
54870;BME280;40756;-37.950;145.008;2024-01-11T09:49:31;101799.69;;;19.87;48.64
54870;BME280;40756;-37.950;145.008;2024-01-11T09:52:03;101799.13;;;19.75;49.15
54870;BME280;40756;-37.950;145.008;2024-01-11T09:54:33;101798.83;;;19.73;50.15
54870;BME280;40756;-37.950;145.008;2024-01-11T09:57:04;101797.54;;;20.58;47.94
54870;BME280;40756;-37.950;145.008;2024-01-11T09:59:34;101796.52;;;20.26;48.44
54870;BME280;40756;-37.950;145.008;2024-01-11T10:02:05;101797.10;;;20.34;47.88
54870;BME280;40756;-37.950;145.008;2024-01-11T10:04:37;101795.57;;;20.14;48.24
54870;BME280;40756;-37.950;145.008;2024-01-11T10:07:07;101795.17;;;20.64;46.79
54870;BME280;40756;-37.950;145.008;2024-01-11T10:09:37;101794.62;;;21.18;46.22
54870;BME280;40756;-37.950;145.008;2024-01-11T10:12:07;101789.63;;;20.45;46.98
54870;BME280;40756;-37.950;145.008;2024-01-11T10:14:37;101782.13;;;20.97;45.55
54870;BME280;40756;-37.950;145.008;2024-01-11T10:17:06;101777.36;;;20.99;45.44
54870;BME280;40756;-37.950;145.008;2024-01-11T10:19:36;101773.96;;;20.63;45.71
54870;BME280;40756;-37.950;145.008;2024-01-11T10:22:06;101767.08;;;21.13;44.96
54870;BME280;40756;-37.950;145.008;2024-01-11T10:24:35;101773.20;;;20.55;45.48
54870;BME280;40756;-37.950;145.008;2024-01-11T10:27:05;101777.92;;;20.50;45.40
54870;BME280;40756;-37.950;145.008;2024-01-11T10:29:38;101776.07;;;20.34;45.56
54870;BME280;40756;-37.950;145.008;2024-01-11T10:32:08;101774.89;;;19.48;46.75
54870;BME280;40756;-37.950;145.008;2024-01-11T10:34:37;101772.03;;;20.24;45.81
54870;BME280;40756;-37.950;145.008;2024-01-11T10:37:07;101773.91;;;19.25;46.41
54870;BME280;40756;-37.950;145.008;2024-01-11T10:39:37;101774.06;;;19.75;45.99
54870;BME280;40756;-37.950;145.008;2024-01-11T10:42:08;101766.10;;;20.35;45.44
54870;BME280;40756;-37.950;145.008;2024-01-11T10:44:41;101758.92;;;20.50;45.15
54870;BME280;40756;-37.950;145.008;2024-01-11T10:47:14;101756.97;;;19.38;46.58
54870;BME280;40756;-37.950;145.008;2024-01-11T10:49:46;101758.80;;;19.64;46.86
54870;BME280;40756;-37.950;145.008;2024-01-11T10:52:22;101764.94;;;19.32;46.28
54870;BME280;40756;-37.950;145.008;2024-01-11T10:54:57;101763.83;;;20.56;45.44
54870;BME280;40756;-37.950;145.008;2024-01-11T10:57:29;101764.00;;;19.79;46.00
54870;BME280;40756;-37.950;145.008;2024-01-11T11:00:00;101764.23;;;18.15;48.87
54870;BME280;40756;-37.950;145.008;2024-01-11T11:02:31;101765.82;;;18.81;48.47
54870;BME280;40756;-37.950;145.008;2024-01-11T11:05:03;101764.98;;;19.24;47.97
54870;BME280;40756;-37.950;145.008;2024-01-11T11:07:36;101764.71;;;20.17;46.78
54870;BME280;40756;-37.950;145.008;2024-01-11T11:10:07;101767.21;;;19.44;47.56
54870;BME280;40756;-37.950;145.008;2024-01-11T11:12:38;101767.69;;;19.77;47.37
54870;BME280;40756;-37.950;145.008;2024-01-11T11:15:10;101766.46;;;19.41;47.81
54870;BME280;40756;-37.950;145.008;2024-01-11T11:17:42;101766.41;;;19.48;47.97
54870;BME280;40756;-37.950;145.008;2024-01-11T11:20:12;101773.20;;;18.95;49.48
54870;BME280;40756;-37.950;145.008;2024-01-11T11:22:42;101775.66;;;19.55;48.16
54870;BME280;40756;-37.950;145.008;2024-01-11T11:25:12;101772.82;;;18.96;48.78
54870;BME280;40756;-37.950;145.008;2024-01-11T11:27:54;101769.19;;;19.02;48.95
54870;BME280;40756;-37.950;145.008;2024-01-11T11:30:24;101770.41;;;19.69;48.13
54870;BME280;40756;-37.950;145.008;2024-01-11T11:32:53;101765.64;;;19.77;47.96
54870;BME280;40756;-37.950;145.008;2024-01-11T11:35:25;101755.85;;;19.97;47.12
54870;BME280;40756;-37.950;145.008;2024-01-11T11:37:56;101753.06;;;20.26;46.79
54870;BME280;40756;-37.950;145.008;2024-01-11T11:40:36;101748.49;;;19.98;46.72
54870;BME280;40756;-37.950;145.008;2024-01-11T11:43:06;101752.37;;;20.39;46.38
54870;BME280;40756;-37.950;145.008;2024-01-11T11:45:37;101750.78;;;20.21;46.36
54870;BME280;40756;-37.950;145.008;2024-01-11T11:48:49;101749.37;;;20.12;46.60
54870;BME280;40756;-37.950;145.008;2024-01-11T11:51:19;101747.38;;;19.11;48.78
54870;BME280;40756;-37.950;145.008;2024-01-11T11:53:50;101745.00;;;19.23;48.31
54870;BME280;40756;-37.950;145.008;2024-01-11T11:56:22;101743.44;;;20.07;47.26
54870;BME280;40756;-37.950;145.008;2024-01-11T11:58:52;101746.00;;;20.14;47.26
54870;BME280;40756;-37.950;145.008;2024-01-11T12:01:21;101745.87;;;20.25;46.69
54870;BME280;40756;-37.950;145.008;2024-01-11T12:03:50;101745.09;;;19.88;47.06
54870;BME280;40756;-37.950;145.008;2024-01-11T12:06:22;101741.15;;;20.72;46.50
54870;BME280;40756;-37.950;145.008;2024-01-11T12:08:54;101738.53;;;20.08;47.14
54870;BME280;40756;-37.950;145.008;2024-01-11T12:11:23;101741.41;;;20.00;47.39
54870;BME280;40756;-37.950;145.008;2024-01-11T12:13:53;101739.27;;;20.46;47.04
54870;BME280;40756;-37.950;145.008;2024-01-11T12:16:23;101735.27;;;20.11;47.44
54870;BME280;40756;-37.950;145.008;2024-01-11T12:18:53;101734.97;;;20.12;47.12
54870;BME280;40756;-37.950;145.008;2024-01-11T12:21:22;101730.90;;;20.05;47.52
54870;BME280;40756;-37.950;145.008;2024-01-11T12:23:51;101726.51;;;19.54;48.50
54870;BME280;40756;-37.950;145.008;2024-01-11T12:26:21;101721.12;;;19.72;48.75
54870;BME280;40756;-37.950;145.008;2024-01-11T12:28:50;101717.73;;;20.02;48.23
54870;BME280;40756;-37.950;145.008;2024-01-11T12:31:21;101716.33;;;19.92;48.39
54870;BME280;40756;-37.950;145.008;2024-01-11T12:33:50;101711.43;;;20.10;48.23